Time;durP1;ratioP1;P1;durP2;ratioP2;P2;SDS_P1;SDS_P2;PMS_P1;PMS_P2;Temp;Humidity;BMP_temperature;BMP_pressure;BME280_temperature;BME280_humidity;BME280_pressure;Samples;Min_cycle;Max_cycle;Signal;HPM_P1;HPM_P2
2021/06/28 00:02:17;;;;;;;17.50;14.45;;;;;;;15.88;85.34;101129.38;4884569;29;20089;-82
2021/06/28 00:04:44;;;;;;;19.65;14.48;;;;;;;15.77;85.11;101110.63;4848698;29;20050;-88
2021/06/28 00:07:10;;;;;;;14.95;13.27;;;;;;;15.98;84.46;101149.00;4864242;29;20419;-84
2021/06/28 00:09:36;;;;;;;14.88;12.38;;;;;;;15.77;83.56;101129.91;4863740;29;20049;-88
2021/06/28 00:12:02;;;;;;;17.88;13.02;;;;;;;15.82;84.16;101156.00;4863220;29;20102;-86
2021/06/28 00:14:28;;;;;;;16.30;13.32;;;;;;;15.69;84.58;101129.47;4863143;29;20061;-86
2021/06/28 00:16:56;;;;;;;17.58;13.52;;;;;;;15.74;84.71;101126.59;4863573;29;20057;-89
2021/06/28 00:19:22;;;;;;;15.43;12.40;;;;;;;15.65;84.99;101135.84;4868936;29;20042;-85
2021/06/28 00:21:50;;;;;;;16.67;13.23;;;;;;;15.73;85.39;101136.25;4868138;29;20106;-85
2021/06/28 00:24:19;;;;;;;14.90;13.15;;;;;;;15.60;85.09;101120.28;4883325;29;20037;-80
2021/06/28 00:26:46;;;;;;;19.77;12.98;;;;;;;15.65;85.35;101133.22;4883914;29;20061;-81
2021/06/28 00:29:13;;;;;;;15.75;12.55;;;;;;;15.56;85.44;101136.31;4882853;29;20065;-84
2021/06/28 00:31:39;;;;;;;15.88;12.07;;;;;;;15.53;85.50;101139.94;4873519;29;20144;-82
2021/06/28 00:34:06;;;;;;;14.95;11.48;;;;;;;15.30;85.78;101117.47;4868567;29;20049;-85
2021/06/28 00:36:34;;;;;;;15.77;12.45;;;;;;;15.39;86.88;101138.00;4866297;29;20045;-84
2021/06/28 00:39:02;;;;;;;17.02;12.80;;;;;;;15.23;86.85;101118.72;4867436;29;20055;-84
2021/06/28 00:41:31;;;;;;;13.68;11.65;;;;;;;15.16;86.22;101123.41;4866227;29;20046;-82
2021/06/28 00:44:00;;;;;;;14.43;11.13;;;;;;;15.02;87.64;101117.06;4865857;29;20506;-80
2021/06/28 00:46:26;;;;;;;12.65;11.15;;;;;;;14.93;88.13;101132.44;4847213;29;20049;-79
2021/06/28 00:48:56;;;;;;;13.35;10.68;;;;;;;14.82;87.90;101120.72;4865640;29;20057;-78
2021/06/28 00:51:23;;;;;;;14.02;10.20;;;;;;;14.56;88.59;101100.91;4865883;29;20065;-81
2021/06/28 00:53:52;;;;;;;14.38;10.63;;;;;;;14.67;89.00;101117.06;4865182;29;20145;-81
2021/06/28 00:56:19;;;;;;;15.20;11.70;;;;;;;14.52;89.52;101097.59;4849521;29;20084;-80
2021/06/28 00:58:52;;;;;;;15.25;11.68;;;;;;;14.54;89.84;101105.41;4853204;29;20053;-84
2021/06/28 01:01:28;;;;;;;16.05;12.10;;;;;;;14.43;89.62;101082.28;4871036;29;20049;-85
2021/06/28 01:03:58;;;;;;;17.38;12.43;;;;;;;14.50;90.18;101096.81;4871182;29;20057;-85
2021/06/28 01:06:24;;;;;;;21.52;13.45;;;;;;;14.45;89.63;101098.78;4870177;29;20463;-85
2021/06/28 01:08:53;;;;;;;14.38;11.15;;;;;;;14.44;89.82;101096.25;4853568;29;20053;-85
2021/06/28 01:11:29;;;;;;;13.73;11.02;;;;;;;14.49;89.15;101104.75;4870545;29;20049;-86
2021/06/28 01:13:57;;;;;;;11.75;10.07;;;;;;;14.30;89.24;101078.53;4854539;29;20133;-86
2021/06/28 01:16:28;;;;;;;14.30;10.57;;;;;;;14.40;89.24;101087.66;4853075;29;20070;-86
2021/06/28 01:19:15;;;;;;;11.57;9.93;;;;;;;14.38;88.72;101094.78;4858303;29;20052;-87
2021/06/28 01:21:45;;;;;;;13.80;11.15;;;;;;;14.31;89.35;101085.50;4871422;29;20053;-86
2021/06/28 01:24:11;;;;;;;14.43;10.40;;;;;;;14.17;89.24;101058.13;4871516;29;20049;-86
2021/06/28 01:26:46;;;;;;;15.15;11.02;;;;;;;14.16;88.49;101068.69;4871041;29;20045;-86
2021/06/28 01:29:15;;;;;;;12.32;10.63;;;;;;;14.30;89.35;101087.25;4854791;29;20076;-86
2021/06/28 01:31:44;;;;;;;15.65;11.35;;;;;;;14.27;89.18;101076.91;4854266;29;20042;-86
2021/06/28 01:34:11;;;;;;;14.10;11.18;;;;;;;14.29;89.10;101082.94;4879047;29;20095;-86
2021/06/28 01:36:40;;;;;;;15.15;10.65;;;;;;;14.07;89.44;101041.09;4889715;29;20075;-85
2021/06/28 01:39:07;;;;;;;14.82;11.50;;;;;;;14.07;89.43;101043.72;4886690;29;20045;-84
2021/06/28 01:41:34;;;;;;;16.83;11.75;;;;;;;14.29;89.57;101080.31;4854422;29;20057;-85
2021/06/28 01:44:01;;;;;;;18.13;12.00;;;;;;;14.36;89.67;101092.22;4870897;29;20065;-86
2021/06/28 01:46:28;;;;;;;16.30;11.30;;;;;;;14.37;89.07;101087.84;4868610;29;20101;-84
2021/06/28 01:48:58;;;;;;;14.23;11.52;;;;;;;14.32;89.61;101084.56;4866277;29;20414;-85
2021/06/28 01:51:24;;;;;;;14.20;11.23;;;;;;;14.31;89.57;101086.34;4865871;29;20415;-85
2021/06/28 01:53:51;;;;;;;15.02;11.48;;;;;;;14.30;88.73;101092.50;4866175;29;20061;-85
2021/06/28 01:56:18;;;;;;;12.90;10.75;;;;;;;14.34;89.35;101091.47;4866024;29;20049;-86
2021/06/28 01:58:44;;;;;;;14.85;9.95;;;;;;;14.23;88.86;101089.34;4866122;29;20110;-85
2021/06/28 02:01:10;;;;;;;14.82;10.48;;;;;;;14.22;88.68;101086.75;4866653;29;20109;-85
2021/06/28 02:03:40;;;;;;;15.45;11.05;;;;;;;14.18;88.23;101085.22;4865498;29;20105;-85
2021/06/28 02:06:07;;;;;;;14.57;10.32;;;;;;;14.19;88.51;101085.13;4851695;29;20049;-86
2021/06/28 02:08:35;;;;;;;11.25;9.32;;;;;;;14.04;88.31;101072.75;4849013;29;20056;-86
2021/06/28 02:11:04;;;;;;;14.85;10.95;;;;;;;14.13;88.62;101082.81;4847326;29;20081;-86
2021/06/28 02:13:36;;;;;;;16.17;10.77;;;;;;;14.17;88.87;101084.38;4864884;29;20117;-86
2021/06/28 02:16:04;;;;;;;12.05;10.10;;;;;;;14.18;89.06;101082.59;4864788;29;20050;-86
2021/06/28 02:18:30;;;;;;;18.60;11.45;;;;;;;14.03;88.90;101071.06;4834661;29;20076;-87
2021/06/28 02:20:59;;;;;;;14.50;11.70;;;;;;;14.04;89.09;101072.75;4873169;29;20034;-86
2021/06/28 02:23:39;;;;;;;15.00;11.40;;;;;;;13.83;89.57;101037.84;4868082;29;20045;-87
2021/06/28 02:26:09;;;;;;;15.50;11.30;;;;;;;14.05;89.95;101077.09;4876063;29;20053;-87
2021/06/28 02:28:47;;;;;;;15.75;11.20;;;;;;;14.00;90.20;101074.66;4868828;29;20057;-86
2021/06/28 02:31:19;;;;;;;15.52;11.50;;;;;;;14.04;90.22;101073.59;4865406;29;20049;-86
2021/06/28 02:33:47;;;;;;;20.58;12.93;;;;;;;13.71;90.10;101024.38;4874976;29;20057;-86
2021/06/28 02:36:17;;;;;;;17.40;12.13;;;;;;;13.88;90.24;101052.47;4882284;29;20096;-85
2021/06/28 02:38:49;;;;;;;18.15;13.65;;;;;;;14.02;90.25;101069.34;4886399;29;20059;-84
2021/06/28 02:41:18;;;;;;;18.10;12.27;;;;;;;13.88;90.40;101043.75;4886682;29;20041;-85
2021/06/28 02:43:44;;;;;;;18.38;12.23;;;;;;;13.99;90.53;101062.47;4869500;29;20407;-86
2021/06/28 02:46:11;;;;;;;17.27;12.95;;;;;;;13.99;91.31;101065.09;4865995;29;20049;-85
2021/06/28 02:48:39;;;;;;;18.08;13.32;;;;;;;14.02;91.02;101046.56;4864889;29;20049;-86
2021/06/28 02:51:06;;;;;;;18.00;13.38;;;;;;;13.94;90.20;101043.47;4863131;29;20050;-85
2021/06/28 02:53:33;;;;;;;16.27;12.73;;;;;;;13.99;91.03;101058.97;4864433;29;20148;-85
2021/06/28 02:56:14;;;;;;;16.95;13.30;;;;;;;13.97;90.40;101055.59;4865680;29;20057;-85
2021/06/28 02:58:47;;;;;;;19.02;13.85;;;;;;;13.89;90.80;101050.69;4853518;29;20041;-85
2021/06/28 03:01:15;;;;;;;18.25;14.25;;;;;;;13.81;90.69;101040.53;4868118;29;20045;-85
2021/06/28 03:03:41;;;;;;;17.90;13.18;;;;;;;13.85;91.17;101030.75;4864652;29;20049;-85
2021/06/28 03:06:07;;;;;;;20.52;13.45;;;;;;;13.88;90.76;101054.25;4865113;29;20061;-86
2021/06/28 03:08:34;;;;;;;19.13;13.13;;;;;;;13.90;90.49;101057.63;4864444;29;20094;-85
2021/06/28 03:11:04;;;;;;;17.40;13.88;;;;;;;13.79;91.21;101039.75;4847561;29;20060;-85
2021/06/28 03:13:32;;;;;;;20.38;13.68;;;;;;;13.82;90.96;101047.50;4863292;29;20394;-85
2021/06/28 03:16:00;;;;;;;16.70;12.82;;;;;;;13.77;90.55;101037.22;4846940;29;20085;-85
2021/06/28 03:18:28;;;;;;;22.85;14.43;;;;;;;13.77;90.59;101054.75;4863689;29;20109;-85
2021/06/28 03:20:56;;;;;;;21.08;13.95;;;;;;;13.74;90.80;101053.13;4862901;29;20116;-85
2021/06/28 03:23:23;;;;;;;17.77;12.43;;;;;;;13.78;91.40;101053.81;4875928;29;20497;-85
2021/06/28 03:25:49;;;;;;;18.83;13.80;;;;;;;13.74;91.35;101049.63;4877645;29;20503;-84
2021/06/28 03:28:17;;;;;;;22.45;14.70;;;;;;;13.53;91.06;101017.34;4831760;29;20049;-85
2021/06/28 03:30:45;;;;;;;20.15;13.90;;;;;;;13.75;91.37;101049.53;4846740;29;20231;-85
2021/06/28 03:33:11;;;;;;;17.90;12.50;;;;;;;13.77;91.31;101046.88;4863130;29;20109;-85
2021/06/28 03:35:37;;;;;;;19.10;13.48;;;;;;;13.56;91.21;101025.94;4863171;29;20048;-85
2021/06/28 03:38:04;;;;;;;18.90;12.35;;;;;;;13.73;91.54;101054.03;4863749;29;20463;-85
2021/06/28 03:40:34;;;;;;;17.80;12.30;;;;;;;13.68;90.95;101050.75;4847649;29;20355;-85
2021/06/28 03:43:07;;;;;;;18.38;12.00;;;;;;;13.71;91.77;101055.88;4863587;29;20054;-85
2021/06/28 03:45:33;;;;;;;16.00;11.82;;;;;;;13.70;91.42;101050.69;4864720;29;20454;-85
2021/06/28 03:48:00;;;;;;;16.52;11.30;;;;;;;13.53;91.14;101033.94;4866017;29;20061;-85
2021/06/28 03:50:28;;;;;;;15.73;11.70;;;;;;;13.62;91.29;101053.66;4867128;29;20046;-83
2021/06/28 03:52:56;;;;;;;17.98;12.77;;;;;;;13.59;91.38;101061.66;4850820;29;20058;-83
2021/06/28 03:55:23;;;;;;;14.88;11.38;;;;;;;13.55;92.07;101052.22;4867438;29;20130;-84
2021/06/28 03:57:54;;;;;;;14.23;11.02;;;;;;;13.56;91.29;101065.28;4867554;29;20045;-81
2021/06/28 04:00:23;;;;;;;14.57;10.57;;;;;;;13.44;91.62;101056.19;4881906;29;20030;-82
2021/06/28 04:02:50;;;;;;;12.43;9.73;;;;;;;13.56;92.00;101075.78;4883504;29;20084;-81
2021/06/28 04:05:22;;;;;;;14.75;10.18;;;;;;;13.42;91.44;101044.91;4883394;29;20041;-80
2021/06/28 04:07:49;;;;;;;14.13;10.57;;;;;;;13.48;91.70;101069.19;4884002;29;20034;-80
2021/06/28 04:10:17;;;;;;;14.82;9.88;;;;;;;13.39;91.88;101065.16;4883960;29;20048;-80
2021/06/28 04:12:46;;;;;;;11.38;8.93;;;;;;;13.43;92.05;101064.97;4883628;29;20058;-81
2021/06/28 04:15:15;;;;;;;13.98;9.63;;;;;;;13.29;92.42;101047.19;4870515;29;20049;-81
2021/06/28 04:17:43;;;;;;;13.70;9.25;;;;;;;13.25;91.44;101045.63;4866591;29;20046;-81
2021/06/28 04:20:11;;;;;;;13.60;8.77;;;;;;;13.26;91.56;101044.69;4865452;29;20058;-82
2021/06/28 04:22:38;;;;;;;13.20;8.55;;;;;;;13.34;91.97;101067.09;4863519;29;20416;-82
2021/06/28 04:25:06;;;;;;;11.93;9.07;;;;;;;13.39;91.75;101063.41;4863189;29;20447;-82
2021/06/28 04:27:33;;;;;;;11.50;8.60;;;;;;;13.38;91.44;101066.09;4862156;29;20053;-81
2021/06/28 04:30:01;;;;;;;10.98;8.65;;;;;;;13.35;91.66;101074.91;4863227;29;20076;-84
2021/06/28 04:32:28;;;;;;;10.85;7.97;;;;;;;13.28;91.73;101071.72;4854731;29;20456;-85
2021/06/28 04:34:58;;;;;;;11.52;7.80;;;;;;;13.37;91.58;101095.84;4827180;29;20054;-85
2021/06/28 04:37:25;;;;;;;10.98;8.38;;;;;;;13.34;91.34;101083.72;4850312;29;20049;-84
2021/06/28 04:39:51;;;;;;;11.85;8.18;;;;;;;13.29;91.34;101081.28;4861625;29;20076;-85
2021/06/28 04:42:17;;;;;;;14.48;9.45;;;;;;;13.16;91.48;101059.13;4861769;29;20375;-85
2021/06/28 04:44:44;;;;;;;13.63;8.80;;;;;;;13.28;91.61;101082.19;4862856;29;20053;-84
2021/06/28 04:47:10;;;;;;;13.82;8.25;;;;;;;13.32;92.06;101084.66;4883141;29;20062;-82
2021/06/28 04:49:36;;;;;;;14.73;8.98;;;;;;;13.24;91.64;101064.91;4884372;29;20033;-82
2021/06/28 04:52:05;;;;;;;16.35;9.38;;;;;;;13.27;91.07;101077.88;4878156;29;20072;-83
2021/06/28 04:54:32;;;;;;;11.07;7.97;;;;;;;13.24;91.62;101077.16;4882638;29;20121;-82
2021/06/28 04:56:59;;;;;;;9.57;7.38;;;;;;;13.21;91.63;101070.28;4884260;29;20034;-83
2021/06/28 04:59:25;;;;;;;12.60;8.70;;;;;;;13.21;91.35;101083.38;4852723;29;20046;-84
2021/06/28 05:01:51;;;;;;;12.73;8.45;;;;;;;13.29;91.48;101096.16;4866430;29;20069;-85
2021/06/28 05:04:18;;;;;;;9.52;7.65;;;;;;;13.36;91.64;101096.75;4847205;29;20048;-84
2021/06/28 05:06:47;;;;;;;10.02;7.20;;;;;;;13.42;91.94;101105.22;4864134;29;20049;-84
2021/06/28 05:09:18;;;;;;;9.60;7.03;;;;;;;13.23;91.12;101078.06;4844412;29;20408;-84
2021/06/28 05:11:44;;;;;;;11.88;7.68;;;;;;;13.45;91.22;101106.84;4845259;29;20081;-84
2021/06/28 05:14:14;;;;;;;9.32;7.07;;;;;;;13.40;91.14;101101.84;4862363;29;20054;-84
2021/06/28 05:16:40;;;;;;;9.15;6.50;;;;;;;13.41;90.92;101116.63;4846839;29;20057;-84
2021/06/28 05:19:06;;;;;;;11.43;7.00;;;;;;;13.45;91.22;101109.47;4847286;29;20061;-84
2021/06/28 05:21:34;;;;;;;10.00;6.70;;;;;;;13.44;91.12;101113.88;4847218;29;20093;-84
2021/06/28 05:24:00;;;;;;;8.60;6.50;;;;;;;13.44;91.33;101115.66;4862731;29;20057;-84
2021/06/28 05:26:28;;;;;;;10.88;6.60;;;;;;;13.42;91.33;101115.69;4863353;29;20057;-84
2021/06/28 05:28:54;;;;;;;8.63;5.63;;;;;;;13.46;91.48;101119.03;4862385;29;20053;-84
2021/06/28 05:31:21;;;;;;;9.35;6.07;;;;;;;13.35;91.50;101105.53;4845549;29;20080;-84
2021/06/28 05:33:48;;;;;;;7.80;5.13;;;;;;;13.51;91.51;101121.47;4864455;29;20053;-84
2021/06/28 05:36:17;;;;;;;7.00;5.15;;;;;;;13.53;91.08;101122.28;4867612;29;20053;-84
2021/06/28 05:38:45;;;;;;;8.18;4.97;;;;;;;13.50;90.89;101117.13;4865359;29;20049;-84
2021/06/28 05:41:11;;;;;;;5.30;4.25;;;;;;;13.42;90.79;101099.97;4860794;29;20045;-84
2021/06/28 05:43:38;;;;;;;7.63;5.00;;;;;;;13.49;90.98;101107.56;4864670;29;20181;-83
2021/06/28 05:46:07;;;;;;;8.02;5.28;;;;;;;13.41;90.91;101098.25;4869021;29;20057;-83
2021/06/28 05:48:33;;;;;;;7.13;4.68;;;;;;;13.50;90.96;101098.78;4868222;29;20137;-84
2021/06/28 05:51:01;;;;;;;7.43;5.53;;;;;;;13.57;90.93;101095.84;4866991;29;20056;-84
2021/06/28 05:53:27;;;;;;;7.90;5.50;;;;;;;13.54;89.95;101093.34;4866665;29;20062;-84
2021/06/28 05:55:53;;;;;;;6.95;5.28;;;;;;;13.66;90.00;101105.06;4867308;29;20053;-84
2021/06/28 05:58:24;;;;;;;6.35;4.47;;;;;;;13.63;90.24;101112.22;4866605;29;20060;-83
2021/06/28 06:00:52;;;;;;;8.77;5.10;;;;;;;13.62;90.06;101119.22;4866044;29;20057;-84
2021/06/28 06:03:18;;;;;;;7.97;5.68;;;;;;;13.64;90.68;101114.78;4866709;29;20084;-84
2021/06/28 06:05:48;;;;;;;7.65;4.88;;;;;;;13.71;90.59;101116.19;4865362;29;20052;-84
2021/06/28 06:08:19;;;;;;;5.93;4.60;;;;;;;13.74;89.78;101125.69;4837446;29;20049;-84
2021/06/28 06:10:45;;;;;;;4.88;3.95;;;;;;;13.71;89.68;101118.81;4847502;29;20049;-84
2021/06/28 06:13:11;;;;;;;7.85;4.70;;;;;;;13.75;90.02;101119.53;4847755;29;20117;-84
2021/06/28 06:15:37;;;;;;;6.45;4.68;;;;;;;13.81;90.05;101126.28;4863817;29;20053;-84
2021/06/28 06:18:03;;;;;;;5.78;4.70;;;;;;;13.82;89.61;101126.22;4863963;29;20455;-83
2021/06/28 06:20:30;;;;;;;5.07;4.13;;;;;;;13.77;89.85;101122.97;4866025;29;20045;-82
2021/06/28 06:23:00;;;;;;;8.38;4.88;;;;;;;13.74;89.57;101118.69;4867383;29;20053;-83
2021/06/28 06:25:29;;;;;;;7.65;4.50;;;;;;;13.81;90.07;101119.25;4850486;29;20064;-82
2021/06/28 06:27:58;;;;;;;5.70;3.80;;;;;;;13.84;89.78;101120.91;4863250;29;20081;-82
2021/06/28 06:30:24;;;;;;;5.85;3.67;;;;;;;13.75;89.55;101115.13;4867433;29;20054;-84
2021/06/28 06:32:52;;;;;;;5.75;4.00;;;;;;;13.89;89.58;101132.03;4854007;29;20056;-83
2021/06/28 06:35:22;;;;;;;4.70;3.38;;;;;;;13.92;89.65;101113.53;4864816;29;20109;-84
2021/06/28 06:37:56;;;;;;;7.13;4.03;;;;;;;14.09;89.27;101131.13;4863588;29;20101;-83
2021/06/28 06:40:27;;;;;;;5.47;3.70;;;;;;;14.17;88.42;101122.91;4866188;29;20050;-84
2021/06/28 06:42:55;;;;;;;7.13;4.00;;;;;;;14.08;88.78;101111.88;4854498;29;20867;-84
2021/06/28 06:45:23;;;;;;;5.85;4.03;;;;;;;14.21;87.91;101127.94;4862449;29;20049;-84
2021/06/28 06:47:48;;;;;;;7.22;3.20;;;;;;;14.13;88.45;101124.81;4863565;29;20062;-84
2021/06/28 06:50:18;;;;;;;5.30;2.88;;;;;;;14.31;88.61;101130.16;4868004;29;20053;-81
2021/06/28 06:52:49;;;;;;;5.57;3.78;;;;;;;14.18;88.18;101125.44;4867904;29;20054;-82
2021/06/28 06:55:17;;;;;;;5.60;3.25;;;;;;;14.14;88.78;101123.88;4866249;29;20061;-83
2021/06/28 06:57:47;;;;;;;4.57;2.60;;;;;;;14.16;88.25;101132.56;4867770;29;20045;-83
2021/06/28 07:00:19;;;;;;;5.00;2.90;;;;;;;14.16;88.01;101143.06;4868700;29;20042;-82
2021/06/28 07:02:47;;;;;;;5.22;2.78;;;;;;;14.20;88.44;101135.91;4869074;29;20480;-83
2021/06/28 07:05:15;;;;;;;3.65;2.38;;;;;;;14.30;87.47;101144.19;4870664;29;20052;-81
2021/06/28 07:07:42;;;;;;;5.80;2.30;;;;;;;14.39;87.86;101155.13;4883968;29;20432;-80
2021/06/28 07:10:09;;;;;;;3.63;2.47;;;;;;;14.28;86.93;101132.91;4868439;29;20037;-79
2021/06/28 07:12:36;;;;;;;5.63;2.55;;;;;;;14.48;87.78;101155.63;4876492;29;20041;-81
2021/06/28 07:15:04;;;;;;;4.22;2.50;;;;;;;14.51;86.76;101158.94;4871032;29;20045;-83
2021/06/28 07:17:31;;;;;;;5.80;2.47;;;;;;;14.54;87.12;101148.28;4866178;29;20056;-81
2021/06/28 07:19:58;;;;;;;5.30;2.58;;;;;;;14.63;86.80;101146.16;4863574;29;20127;-81
2021/06/28 07:22:27;;;;;;;7.32;2.72;;;;;;;14.72;86.55;101153.59;4867266;29;20062;-81
2021/06/28 07:24:54;;;;;;;8.40;2.83;;;;;;;14.73;86.69;101150.06;4850611;29;20065;-82
2021/06/28 07:27:20;;;;;;;3.42;2.67;;;;;;;14.84;86.63;101152.16;4868415;29;20053;-84
2021/06/28 07:29:48;;;;;;;3.75;2.63;;;;;;;14.92;86.25;101151.81;4868869;29;20053;-83
2021/06/28 07:32:19;;;;;;;7.68;2.83;;;;;;;15.11;85.75;101152.59;4867197;29;20104;-83
2021/06/28 07:34:48;;;;;;;5.03;3.50;;;;;;;15.19;85.06;101125.91;4869128;29;20080;-85
2021/06/28 07:37:17;;;;;;;5.00;3.70;;;;;;;15.08;85.88;101147.47;4867951;29;20105;-84
2021/06/28 07:39:45;;;;;;;11.40;6.00;;;;;;;15.04;84.96;101164.34;4866277;29;20094;-84
2021/06/28 07:42:11;;;;;;;7.20;6.10;;;;;;;14.92;85.75;101167.56;4866650;29;20455;-84
2021/06/28 07:44:39;;;;;;;9.43;5.93;;;;;;;14.76;86.04;101173.56;4850793;29;20109;-83
2021/06/28 07:47:05;;;;;;;11.32;6.32;;;;;;;14.58;86.90;101165.59;4875760;29;20050;-82
2021/06/28 07:49:36;;;;;;;11.05;5.80;;;;;;;14.65;86.93;101176.72;4877346;29;20053;-81
2021/06/28 07:52:03;;;;;;;8.30;5.60;;;;;;;14.65;86.91;101170.56;4876701;29;20054;-81
2021/06/28 07:54:31;;;;;;;7.40;5.88;;;;;;;14.68;86.61;101175.69;4868115;29;20058;-84
2021/06/28 07:57:00;;;;;;;11.25;6.30;;;;;;;14.62;86.60;101173.34;4851433;29;20061;-82
2021/06/28 07:59:27;;;;;;;7.75;5.75;;;;;;;14.53;86.50;101174.63;4868140;29;20049;-83
2021/06/28 08:01:55;;;;;;;10.52;5.95;;;;;;;14.36;86.87;101167.53;4870572;29;20050;-82
2021/06/28 08:04:29;;;;;;;8.40;5.47;;;;;;;14.54;87.30;101174.56;4855455;29;20053;-81
2021/06/28 08:06:57;;;;;;;7.80;5.47;;;;;;;14.54;86.97;101169.28;4854192;29;20117;-79
2021/06/28 08:09:27;;;;;;;8.30;5.70;;;;;;;14.60;86.18;101169.91;4869976;29;20050;-79
2021/06/28 08:11:58;;;;;;;7.47;5.80;;;;;;;14.52;86.14;101170.28;4869248;29;20061;-79
2021/06/28 08:14:26;;;;;;;7.65;6.35;;;;;;;14.57;85.65;101169.16;4868779;29;20055;-79
2021/06/28 08:16:54;;;;;;;7.53;5.32;;;;;;;14.61;86.08;101153.25;4868773;29;20053;-80
2021/06/28 08:19:25;;;;;;;7.82;6.35;;;;;;;14.64;85.67;101148.69;4870228;29;20054;-83
2021/06/28 08:21:51;;;;;;;9.55;6.97;;;;;;;14.91;84.96;101165.88;4875322;29;20061;-83
2021/06/28 08:24:24;;;;;;;7.65;5.95;;;;;;;15.08;84.35;101178.19;4879293;29;20057;-83
2021/06/28 08:26:52;;;;;;;7.55;6.22;;;;;;;15.19;83.46;101176.69;4876448;29;20054;-80
2021/06/28 08:29:19;;;;;;;6.40;5.13;;;;;;;15.22;82.91;101180.94;4874832;29;20053;-79
2021/06/28 08:31:48;;;;;;;7.15;5.28;;;;;;;15.20;83.18;101183.66;4875487;29;20113;-81
2021/06/28 08:34:16;;;;;;;6.40;5.07;;;;;;;15.18;83.07;101182.91;4881252;29;20061;-82
2021/06/28 08:39:38;;;;;;;6.82;4.93;;;;;;;15.59;81.92;101192.25;4880472;29;20050;-86
2021/06/28 08:42:07;;;;;;;7.30;6.10;;;;;;;15.60;81.65;101204.50;4861356;29;20053;-85
2021/06/28 08:44:34;;;;;;;8.35;5.43;;;;;;;15.57;82.16;101206.44;4876430;29;20053;-83
2021/06/28 08:47:00;;;;;;;6.65;5.85;;;;;;;15.50;81.85;101192.72;4877080;29;20136;-83
2021/06/28 08:49:28;;;;;;;7.25;5.28;;;;;;;15.51;82.15;101197.94;4876122;29;20045;-83
2021/06/28 08:51:56;;;;;;;6.10;5.15;;;;;;;15.67;82.33;101208.50;4876640;29;20459;-84
2021/06/28 08:54:31;;;;;;;6.85;4.55;;;;;;;15.66;81.87;101205.94;4883091;29;20058;-82
2021/06/28 08:57:00;;;;;;;6.10;4.68;;;;;;;15.55;81.85;101198.63;4884664;29;20055;-83
2021/06/28 08:59:32;;;;;;;8.50;4.90;;;;;;;15.62;81.17;101199.16;4854802;29;20062;-83
2021/06/28 09:02:00;;;;;;;6.18;4.38;;;;;;;15.73;81.60;101206.50;4867754;29;20045;-84
2021/06/28 09:04:29;;;;;;;6.50;4.30;;;;;;;15.70;81.86;101210.13;4877702;29;20069;-84
2021/06/28 09:07:37;;;;;;;7.50;4.30;;;;;;;15.63;80.79;101208.75;4874709;29;20045;-84
2021/06/28 09:10:04;;;;;;;6.93;4.55;;;;;;;15.54;82.35;101191.66;4856552;29;20423;-83
2021/06/28 09:12:33;;;;;;;5.65;3.88;;;;;;;15.79;81.83;101214.06;4873029;29;20160;-83
2021/06/28 09:15:00;;;;;;;6.30;4.03;;;;;;;15.80;81.40;101213.13;4872850;29;20499;-83
2021/06/28 09:17:36;;;;;;;6.55;3.72;;;;;;;15.67;81.65;101220.81;4873112;29;20050;-83
2021/06/28 09:20:15;;;;;;;5.90;3.75;;;;;;;15.69;81.59;101225.06;4875102;29;20053;-83
2021/06/28 09:22:43;;;;;;;5.38;3.80;;;;;;;15.71;82.12;101217.09;4876940;29;20117;-82
2021/06/28 09:25:29;;;;;;;5.63;4.15;;;;;;;15.75;81.88;101239.69;4869451;29;20213;-82
2021/06/28 09:27:55;;;;;;;6.93;4.05;;;;;;;15.76;83.04;101240.53;4888046;29;20058;-78
2021/06/28 09:30:22;;;;;;;6.65;4.45;;;;;;;15.69;82.69;101218.94;4870342;29;20111;-81
2021/06/28 09:32:57;;;;;;;6.03;4.00;;;;;;;15.76;82.71;101244.03;4885043;29;20101;-80
2021/06/28 09:35:36;;;;;;;4.60;2.40;;;;;;;15.64;80.86;101237.59;4887807;29;20036;-82
2021/06/28 09:38:07;;;;;;;4.85;2.85;;;;;;;15.73;82.21;101238.91;4879601;29;20053;-83
2021/06/28 09:40:38;;;;;;;6.00;3.40;;;;;;;15.88;82.40;101241.72;4877831;29;20081;-82
2021/06/28 09:43:25;;;;;;;6.93;5.13;;;;;;;15.73;81.64;101246.81;4877103;29;20053;-83
2021/06/28 09:45:57;;;;;;;7.75;5.95;;;;;;;15.71;82.46;101243.41;4877376;29;20049;-82
2021/06/28 09:48:31;;;;;;;8.27;6.03;;;;;;;15.66;82.43;101234.88;4876345;29;20049;-83
2021/06/28 09:51:25;;;;;;;8.83;6.60;;;;;;;15.72;82.25;101239.00;4858492;29;20054;-81
2021/06/28 09:54:15;;;;;;;7.75;6.38;;;;;;;15.68;81.42;101233.91;4874006;29;20068;-79
2021/06/28 09:56:47;;;;;;;8.25;5.55;;;;;;;15.77;81.52;101243.09;4874391;29;20049;-82
2021/06/28 09:59:35;;;;;;;7.10;5.45;;;;;;;15.80;81.33;101250.81;4873069;29;20491;-82
2021/06/28 10:02:14;;;;;;;6.43;5.63;;;;;;;15.76;80.83;101251.06;4870877;29;20057;-83
2021/06/28 10:05:08;;;;;;;10.43;6.00;;;;;;;15.74;80.83;101245.88;4874206;29;20057;-78
2021/06/28 10:07:36;;;;;;;8.57;5.50;;;;;;;15.74;82.03;101240.63;4882484;29;20057;-78
2021/06/28 10:10:12;;;;;;;7.65;5.95;;;;;;;15.88;81.04;101249.63;4881544;29;20049;-80
2021/06/28 10:12:42;;;;;;;6.93;5.95;;;;;;;16.02;79.99;101248.91;4879258;29;20049;-80
2021/06/28 10:15:14;;;;;;;8.15;5.35;;;;;;;16.16;79.76;101247.25;4880680;29;20049;-79
2021/06/28 10:17:42;;;;;;;10.20;5.63;;;;;;;16.14;79.89;101262.28;4853027;29;20045;-81
2021/06/28 10:20:13;;;;;;;8.68;5.47;;;;;;;15.93;80.11;101269.53;4885325;29;20049;-77
2021/06/28 10:22:43;;;;;;;8.43;5.45;;;;;;;16.04;80.82;101257.56;4883171;29;20094;-77
2021/06/28 10:25:13;;;;;;;10.63;5.85;;;;;;;16.04;80.54;101260.19;4880975;29;20050;-83
2021/06/28 10:27:41;;;;;;;7.50;5.95;;;;;;;16.00;80.95;101267.41;4861383;29;20653;-80
2021/06/28 10:30:14;;;;;;;7.68;5.82;;;;;;;15.91;80.15;101247.69;4875263;29;20087;-83
2021/06/28 10:32:44;;;;;;;6.45;5.43;;;;;;;16.03;80.59;101261.13;4872874;29;20132;-83
2021/06/28 10:35:14;;;;;;;7.85;5.68;;;;;;;15.88;80.87;101263.66;4873405;29;20502;-83
2021/06/28 10:37:51;;;;;;;7.93;5.90;;;;;;;15.68;nan;101251.47;4871699;29;20053;-83
2021/06/28 10:40:25;;;;;;;7.80;6.20;;;;;;;15.60;81.18;101261.50;4882790;29;20114;-80
2021/06/28 10:42:57;;;;;;;8.80;6.13;;;;;;;15.54;81.03;101239.00;4897890;29;20064;-80
2021/06/28 10:45:41;;;;;;;7.90;5.80;;;;;;;15.76;80.87;101265.09;4893469;29;20049;-83
2021/06/28 10:48:30;;;;;;;7.00;6.25;;;;;;;15.90;81.19;101256.50;4875533;29;20060;-80
2021/06/28 10:51:06;;;;;;;9.00;6.15;;;;;;;15.99;80.58;101257.81;4857682;29;20049;-80
2021/06/28 10:53:38;;;;;;;7.45;6.38;;;;;;;16.08;80.66;101259.13;4871715;29;20068;-78
2021/06/28 10:56:34;;;;;;;7.63;6.00;;;;;;;16.11;80.23;101265.09;4870477;29;20057;-79
2021/06/28 10:59:22;;;;;;;8.63;6.75;;;;;;;16.14;79.85;101264.06;4871586;29;20057;-77
2021/06/28 11:02:16;;;;;;;9.05;6.28;;;;;;;16.17;79.91;101259.50;4874109;29;20052;-78
2021/06/28 11:04:55;;;;;;;7.90;6.97;;;;;;;16.17;79.38;101256.00;4857822;29;20054;-77
2021/06/28 11:07:40;;;;;;;9.32;6.90;;;;;;;16.15;80.09;101252.59;4872619;29;20053;-82
2021/06/28 11:10:37;;;;;;;8.43;7.10;;;;;;;16.32;80.30;101251.72;4876086;29;20516;-78
2021/06/28 11:13:38;;;;;;;8.27;7.07;;;;;;;16.63;78.33;101256.16;4856752;29;20054;-78
2021/06/28 11:16:51;;;;;;;10.57;6.40;;;;;;;17.02;77.45;101255.84;4869237;29;20049;-81
2021/06/28 11:19:51;;;;;;;7.53;6.45;;;;;;;17.19;76.00;101252.25;4877036;29;20059;-76
2021/06/28 11:22:27;;;;;;;7.60;6.20;;;;;;;17.44;75.61;101255.19;4862211;29;20083;-85
2021/06/28 11:25:08;;;;;;;8.45;5.78;;;;;;;17.59;74.60;101252.59;4877011;29;20053;-82
2021/06/28 11:27:40;;;;;;;7.78;5.65;;;;;;;17.74;75.21;101243.72;4876292;29;20049;-80
2021/06/28 11:30:12;;;;;;;9.93;5.82;;;;;;;18.15;74.37;101249.28;4879589;29;20054;-81
2021/06/28 11:33:04;;;;;;;8.60;5.70;;;;;;;18.29;72.43;101251.91;4881655;29;20137;-82
2021/06/28 11:35:46;;;;;;;8.60;6.38;;;;;;;18.22;73.88;101254.09;4856348;29;20058;-84
2021/06/28 11:38:17;;;;;;;7.78;5.85;;;;;;;18.23;73.81;101258.41;4849487;29;20129;-77